createdAt,value
2018-08-23T00:01:26.048Z,32.40
2018-08-23T00:03:54.493Z,34.10
2018-08-23T00:06:22.812Z,34.33
2018-08-23T00:08:51.541Z,35.70
2018-08-23T00:11:23.876Z,33.67
2018-08-23T00:13:52.130Z,34.23
2018-08-23T00:16:46.807Z,33.90
2018-08-23T00:19:15.680Z,34.73
2018-08-23T00:21:48.768Z,32.60
2018-08-23T00:24:23.119Z,38.70
2018-08-23T00:26:53.916Z,36.57
2018-08-23T00:29:38.311Z,36.80
2018-08-23T00:32:07.503Z,35.23
2018-08-23T00:34:37.703Z,33.33
2018-08-23T00:37:06.616Z,34.20
2018-08-23T00:39:34.841Z,33.80
2018-08-23T00:42:04.024Z,34.87
2018-08-23T00:44:44.739Z,32.60
2018-08-23T00:47:12.987Z,33.87
2018-08-23T00:49:41.697Z,36.50
2018-08-23T00:52:09.900Z,35.30
2018-08-23T00:54:38.138Z,35.67
2018-08-23T00:57:06.552Z,35.43
2018-08-23T00:59:34.758Z,31.37
2018-08-23T01:02:09.637Z,34.97
2018-08-23T01:04:43.061Z,37.33
2018-08-23T01:07:13.237Z,38.73
2018-08-23T01:09:43.883Z,36.30
2018-08-23T01:12:12.759Z,39.90
2018-08-23T01:14:41.036Z,37.87
2018-08-23T01:17:14.309Z,34.43
2018-08-23T01:19:48.144Z,35.10
2018-08-23T01:22:16.467Z,41.20
2018-08-23T01:24:47.379Z,35.80
2018-08-23T01:27:21.545Z,36.27
2018-08-23T01:29:49.760Z,36.40
2018-08-23T01:32:22.200Z,37.23
2018-08-23T01:34:50.394Z,37.70
2018-08-23T01:37:32.933Z,38.43
2018-08-23T01:40:02.180Z,34.60
2018-08-23T01:42:34.387Z,35.77
2018-08-23T01:45:03.353Z,35.67
2018-08-23T01:47:54.606Z,41.70
2018-08-23T01:50:23.035Z,41.57
2018-08-23T01:52:52.266Z,44.37
2018-08-23T01:55:21.380Z,45.43
2018-08-23T01:57:50.077Z,44.23
2018-08-23T02:00:21.576Z,44.37
2018-08-23T02:02:49.800Z,47.50
2018-08-23T02:05:18.028Z,41.83
2018-08-23T02:07:46.330Z,40.10
2018-08-23T02:10:14.589Z,40.60
2018-08-23T02:12:48.184Z,41.03
2018-08-23T02:15:16.382Z,37.83
2018-08-23T02:17:50.157Z,45.03
2018-08-23T02:20:18.364Z,37.60
2018-08-23T02:22:46.597Z,44.23
2018-08-23T02:25:14.796Z,43.47
2018-08-23T02:28:00.924Z,45.73
2018-08-23T02:30:54.385Z,47.00
2018-08-23T02:33:22.637Z,47.87
2018-08-23T02:36:06.232Z,45.33
2018-08-23T02:38:35.362Z,47.50
2018-08-23T02:41:03.580Z,47.17
2018-08-23T02:43:31.862Z,48.43
2018-08-23T02:46:02.520Z,49.40
2018-08-23T02:48:30.760Z,47.87
2018-08-23T02:50:59.288Z,49.50
2018-08-23T02:53:33.828Z,56.60
2018-08-23T02:56:11.575Z,50.53
2018-08-23T02:58:50.497Z,57.83
2018-08-23T03:01:18.714Z,52.13
2018-08-23T03:04:01.297Z,54.77
2018-08-23T03:07:04.474Z,59.03
2018-08-23T03:09:36.570Z,57.57
2018-08-23T03:12:10.056Z,64.07
2018-08-23T03:14:38.688Z,62.23
2018-08-23T03:17:17.475Z,69.80
2018-08-23T03:19:59.000Z,63.03
2018-08-23T03:22:27.212Z,57.97
2018-08-23T03:24:55.618Z,68.43
2018-08-23T03:27:23.849Z,63.13
2018-08-23T03:29:52.056Z,64.57
2018-08-23T03:32:20.244Z,68.37
2018-08-23T03:34:48.456Z,61.73
2018-08-23T03:37:16.988Z,67.50
2018-08-23T03:39:45.352Z,62.17
2018-08-23T03:42:13.619Z,66.60
2018-08-23T03:44:41.849Z,62.17
2018-08-23T03:47:10.052Z,65.93
2018-08-23T03:49:44.764Z,64.93
2018-08-23T03:52:14.328Z,64.97
2018-08-23T03:54:47.008Z,64.93
2018-08-23T03:57:16.619Z,71.23
2018-08-23T03:59:46.024Z,68.90
2018-08-23T04:02:15.237Z,71.43
2018-08-23T04:04:45.044Z,67.93
2018-08-23T04:07:13.262Z,72.87
2018-08-23T04:09:41.640Z,69.80
2018-08-23T04:12:09.900Z,66.73
2018-08-23T04:14:38.212Z,70.30
2018-08-23T04:17:07.440Z,63.07
2018-08-23T04:19:40.976Z,70.20
2018-08-23T04:22:09.252Z,70.73
2018-08-23T04:24:42.143Z,70.57
2018-08-23T04:27:11.122Z,68.43
2018-08-23T04:29:44.820Z,73.93
2018-08-23T04:32:13.031Z,69.97
2018-08-23T04:34:41.257Z,73.87
2018-08-23T04:37:09.488Z,75.60
2018-08-23T04:39:41.948Z,72.83
2018-08-23T04:42:10.184Z,78.83
2018-08-23T04:44:42.664Z,71.50
2018-08-23T04:47:10.904Z,81.03
2018-08-23T04:49:39.180Z,76.50
2018-08-23T04:52:07.421Z,75.03
2018-08-23T04:54:35.841Z,78.80
2018-08-23T04:57:04.059Z,91.83
2018-08-23T04:59:32.312Z,82.20
2018-08-23T05:02:00.634Z,77.10
2018-08-23T05:04:28.844Z,82.23
2018-08-23T05:06:57.138Z,86.20
2018-08-23T05:09:25.525Z,85.43
2018-08-23T05:11:53.769Z,87.93
2018-08-23T05:14:21.980Z,81.43
2018-08-23T05:16:50.267Z,83.43
2018-08-23T05:19:18.668Z,92.27
2018-08-23T05:21:47.136Z,87.73
2018-08-23T05:24:15.656Z,84.77
2018-08-23T05:26:43.884Z,83.03
2018-08-23T05:29:12.120Z,81.63
2018-08-23T05:31:40.525Z,82.53
2018-08-23T05:34:09.487Z,80.33
2018-08-23T05:36:37.687Z,86.83
2018-08-23T05:39:08.263Z,86.30
2018-08-23T05:41:36.471Z,84.77
2018-08-23T05:44:14.121Z,93.03
2018-08-23T05:46:47.252Z,92.60
2018-08-23T05:49:15.467Z,86.27
2018-08-23T05:51:44.577Z,87.97
2018-08-23T05:54:12.897Z,99.60
2018-08-23T05:56:42.056Z,99.40
2018-08-23T05:59:14.285Z,90.77
2018-08-23T06:01:43.218Z,86.07
2018-08-23T06:04:11.480Z,86.17
2018-08-23T06:06:39.800Z,94.07
2018-08-23T06:09:13.764Z,91.43
2018-08-23T06:11:42.456Z,91.43
2018-08-23T06:14:11.055Z,94.70
2018-08-23T06:16:44.295Z,85.83
2018-08-23T06:19:12.484Z,98.17
2018-08-23T06:21:40.747Z,85.30
2018-08-23T06:24:09.921Z,85.10
2018-08-23T06:26:44.932Z,93.60
2018-08-23T06:29:15.158Z,90.93
2018-08-23T06:32:01.144Z,85.80
2018-08-23T06:34:30.710Z,84.70
2018-08-23T06:36:58.982Z,89.73
2018-08-23T06:39:27.238Z,83.03
2018-08-23T06:41:57.310Z,81.00
2018-08-23T06:44:33.922Z,94.47
2018-08-23T06:47:02.216Z,101.40
2018-08-23T06:49:30.416Z,102.40
2018-08-23T06:52:07.559Z,86.13
2018-08-23T06:54:35.717Z,92.77
2018-08-23T06:57:03.960Z,96.63
2018-08-23T06:59:32.264Z,89.37
2018-08-23T07:02:00.520Z,91.67
2018-08-23T07:04:28.728Z,88.37
2018-08-23T07:06:56.969Z,85.83
2018-08-23T07:09:25.260Z,83.17
2018-08-23T07:11:59.157Z,82.30
2018-08-23T07:14:27.404Z,87.67
2018-08-23T07:16:55.640Z,92.93
2018-08-23T07:19:30.884Z,88.37
2018-08-23T07:22:01.330Z,85.07
2018-08-23T07:24:42.237Z,89.03
2018-08-23T07:27:12.492Z,89.67
2018-08-23T07:29:41.881Z,78.20
2018-08-23T07:32:19.899Z,75.83
2018-08-23T07:34:52.532Z,68.20
2018-08-23T07:37:21.279Z,70.60
2018-08-23T07:39:55.787Z,78.30
2018-08-23T07:42:26.136Z,66.70
2018-08-23T07:44:54.809Z,67.57
2018-08-23T07:47:23.689Z,67.00
2018-08-23T07:49:53.142Z,67.03
2018-08-23T07:52:21.341Z,69.30
2018-08-23T07:54:49.583Z,69.13
2018-08-23T07:57:17.812Z,66.70
2018-08-23T07:59:46.095Z,61.97
2018-08-23T08:02:14.848Z,66.07
2018-08-23T08:04:43.396Z,61.40
2018-08-23T08:07:15.849Z,56.73
2018-08-23T08:09:44.732Z,54.70
2018-08-23T08:12:18.364Z,60.63
2018-08-23T08:14:46.647Z,62.07
2018-08-23T08:17:20.160Z,57.47
2018-08-23T08:19:53.753Z,57.77
2018-08-23T08:22:22.045Z,51.70
2018-08-23T08:25:02.026Z,56.60
2018-08-23T08:27:30.439Z,55.77
2018-08-23T08:29:58.776Z,55.63
2018-08-23T08:32:27.048Z,44.47
2018-08-23T08:34:56.818Z,44.43
2018-08-23T08:37:25.104Z,42.40
2018-08-23T08:39:53.356Z,48.20
2018-08-23T08:42:32.620Z,42.47
2018-08-23T08:45:10.510Z,44.17
2018-08-23T08:47:39.555Z,41.03
2018-08-23T08:50:07.896Z,38.13
2018-08-23T08:52:36.164Z,42.30
2018-08-23T08:55:06.427Z,37.50
2018-08-23T08:57:38.972Z,47.20
2018-08-23T09:00:07.355Z,40.13
2018-08-23T09:02:35.564Z,34.07
2018-08-23T09:05:03.844Z,39.07
2018-08-23T09:07:33.057Z,34.03
2018-08-23T09:10:01.313Z,34.30
2018-08-23T09:12:31.172Z,32.73
2018-08-23T09:14:59.624Z,32.83
2018-08-23T09:17:40.666Z,40.57
2018-08-23T09:20:12.576Z,32.23
2018-08-23T09:22:42.147Z,31.07
2018-08-23T09:25:15.521Z,31.07
2018-08-23T09:27:43.738Z,30.73
2018-08-23T09:30:17.376Z,30.17
2018-08-23T09:32:45.588Z,28.33
2018-08-23T09:35:13.922Z,30.10
2018-08-23T09:37:42.087Z,32.03
2018-08-23T09:40:10.295Z,27.90
2018-08-23T09:42:38.959Z,28.27
2018-08-23T09:45:12.363Z,25.20
2018-08-23T09:47:40.633Z,23.40
2018-08-23T09:50:08.898Z,20.90
2018-08-23T09:52:41.328Z,18.20
2018-08-23T09:55:10.940Z,19.03
2018-08-23T09:57:39.257Z,21.53
2018-08-23T10:00:09.005Z,27.03
2018-08-23T10:02:42.571Z,26.97
2018-08-23T10:05:16.066Z,25.33
2018-08-23T10:07:49.871Z,22.10
2018-08-23T10:10:23.420Z,23.10
2018-08-23T10:12:56.951Z,24.70
2018-08-23T10:15:30.516Z,20.30
2018-08-23T10:18:04.924Z,19.67
2018-08-23T10:20:43.928Z,21.17
2018-08-23T10:23:20.624Z,20.30
2018-08-23T10:25:51.880Z,20.13
2018-08-23T10:28:21.377Z,17.23
2018-08-23T10:30:49.858Z,22.07
2018-08-23T10:33:18.186Z,22.07
2018-08-23T10:35:46.388Z,18.57
2018-08-23T10:38:16.287Z,19.13
2018-08-23T10:40:45.188Z,17.73
2018-08-23T10:43:13.651Z,18.27
2018-08-23T10:45:42.199Z,16.90
2018-08-23T10:48:19.258Z,15.83
2018-08-23T10:50:48.765Z,16.60
2018-08-23T10:53:17.458Z,19.43
2018-08-23T10:55:45.940Z,17.07
2018-08-23T10:58:14.211Z,17.50
2018-08-23T11:00:42.621Z,17.57
2018-08-23T11:03:10.863Z,15.63
2018-08-23T11:05:39.140Z,15.53
2018-08-23T11:08:12.640Z,14.27
2018-08-23T11:10:46.328Z,11.40
2018-08-23T11:13:20.011Z,14.33
2018-08-23T11:15:48.271Z,13.13
2018-08-23T11:18:21.933Z,15.23
2018-08-23T11:20:50.924Z,13.53
2018-08-23T11:23:23.602Z,14.63
2018-08-23T11:25:51.844Z,14.63
2018-08-23T11:28:22.040Z,14.23
2018-08-23T11:30:50.905Z,11.83
2018-08-23T11:33:19.192Z,12.77
2018-08-23T11:35:47.530Z,12.80
2018-08-23T11:38:15.782Z,11.97
2018-08-23T11:40:44.019Z,12.77
2018-08-23T11:43:12.318Z,12.30
2018-08-23T11:45:40.594Z,14.30
2018-08-23T11:48:08.888Z,15.57
2018-08-23T11:50:37.169Z,13.97
2018-08-23T11:53:05.664Z,13.23
2018-08-23T11:55:33.862Z,11.07
2018-08-23T11:58:02.100Z,14.20
2018-08-23T12:00:30.327Z,13.07
2018-08-23T12:02:58.796Z,12.23
2018-08-23T12:05:27.018Z,11.97
2018-08-23T12:07:55.789Z,11.10
2018-08-23T12:10:24.912Z,8.87
2018-08-23T12:12:54.360Z,9.80
2018-08-23T12:15:31.602Z,10.17
2018-08-23T12:18:00.148Z,9.13
2018-08-23T12:20:28.404Z,13.90
2018-08-23T12:22:56.786Z,9.40
2018-08-23T12:25:25.028Z,11.27
2018-08-23T12:27:58.777Z,8.37
2018-08-23T12:30:27.039Z,7.63
2018-08-23T12:32:55.531Z,9.58
2018-08-23T12:35:23.803Z,6.30
2018-08-23T12:38:01.310Z,10.47
2018-08-23T12:40:35.513Z,8.58
2018-08-23T12:43:06.353Z,8.63
2018-08-23T12:45:38.577Z,8.80
2018-08-23T12:48:07.212Z,7.62
2018-08-23T12:50:35.448Z,7.33
2018-08-23T12:53:03.764Z,9.08
2018-08-23T12:55:32.291Z,7.97
2018-08-23T12:58:00.562Z,10.75
2018-08-23T13:00:28.926Z,10.25
2018-08-23T13:02:57.441Z,7.15
2018-08-23T13:05:25.645Z,8.13
2018-08-23T13:07:53.976Z,8.00
2018-08-23T13:10:22.240Z,11.60
2018-08-23T13:12:50.458Z,10.33
2018-08-23T13:15:18.728Z,9.90
2018-08-23T13:17:47.004Z,13.95
2018-08-23T13:20:15.328Z,8.68
2018-08-23T13:22:43.661Z,8.95
2018-08-23T13:25:13.221Z,11.53
2018-08-23T13:27:41.461Z,9.68
2018-08-23T13:30:09.758Z,9.15
2018-08-23T13:32:38.303Z,11.12
2018-08-23T13:35:06.749Z,8.97
2018-08-23T13:37:35.026Z,10.20
2018-08-23T13:40:03.394Z,10.07
2018-08-23T13:42:31.703Z,10.13
2018-08-23T13:44:59.912Z,11.57
2018-08-23T13:47:28.266Z,12.13
2018-08-23T13:49:56.547Z,10.13
2018-08-23T13:52:25.030Z,8.50
2018-08-23T13:54:53.559Z,11.85
2018-08-23T13:57:21.738Z,13.50
2018-08-23T13:59:49.924Z,10.43
2018-08-23T14:02:18.232Z,13.03
2018-08-23T14:04:46.356Z,11.00
2018-08-23T14:07:14.649Z,11.87
2018-08-23T14:09:42.948Z,10.60
2018-08-23T14:12:11.204Z,10.53
2018-08-23T14:14:39.510Z,11.40
2018-08-23T14:17:07.765Z,11.80
2018-08-23T14:19:35.996Z,14.40
2018-08-23T14:22:04.229Z,9.57
2018-08-23T14:24:32.453Z,13.73
2018-08-23T14:27:00.737Z,13.00
2018-08-23T14:29:28.955Z,12.20
2018-08-23T14:31:57.186Z,10.77
2018-08-23T14:34:25.509Z,14.93
2018-08-23T14:36:53.887Z,10.82
2018-08-23T14:39:22.194Z,11.53
2018-08-23T14:41:50.404Z,13.10
2018-08-23T14:44:18.675Z,14.53
2018-08-23T14:46:52.256Z,12.00
2018-08-23T14:49:25.790Z,11.03
2018-08-23T14:51:54.099Z,7.93
2018-08-23T14:54:27.604Z,7.53
2018-08-23T14:57:01.285Z,6.93
2018-08-23T14:59:29.610Z,9.77
2018-08-23T15:01:57.993Z,12.00
2018-08-23T15:04:26.214Z,7.37
2018-08-23T15:06:54.602Z,7.47
2018-08-23T15:09:27.532Z,8.40
2018-08-23T15:11:56.048Z,12.20
2018-08-23T15:14:24.340Z,11.43
2018-08-23T15:16:52.601Z,7.37
2018-08-23T15:19:20.920Z,11.17
2018-08-23T15:21:49.227Z,11.80
2018-08-23T15:24:17.521Z,9.40
2018-08-23T15:26:46.363Z,13.27
2018-08-23T15:29:14.689Z,8.93
2018-08-23T15:31:44.620Z,8.37
2018-08-23T15:34:12.880Z,10.83
2018-08-23T15:36:41.244Z,10.47
2018-08-23T15:39:12.836Z,8.50
2018-08-23T15:41:41.459Z,7.67
2018-08-23T15:44:10.655Z,7.70
2018-08-23T15:46:43.788Z,8.30
2018-08-23T15:49:12.172Z,9.87
2018-08-23T15:51:40.960Z,7.53
2018-08-23T15:54:09.726Z,8.97
2018-08-23T15:56:38.628Z,11.50
2018-08-23T15:59:06.829Z,7.00
2018-08-23T16:01:35.168Z,7.67
2018-08-23T16:04:03.704Z,7.47
2018-08-23T16:06:31.945Z,8.13
2018-08-23T16:09:00.290Z,7.53
2018-08-23T16:11:28.526Z,10.67
2018-08-23T16:13:56.905Z,8.33
2018-08-23T16:16:30.590Z,8.40
2018-08-23T16:19:04.378Z,10.00
2018-08-23T16:21:34.635Z,9.33
2018-08-23T16:24:02.927Z,13.33
2018-08-23T16:26:36.457Z,12.50
2018-08-23T16:29:04.714Z,13.80
2018-08-23T16:31:32.974Z,11.40
2018-08-23T16:34:01.270Z,13.27
2018-08-23T16:36:29.479Z,13.03
2018-08-23T16:38:57.776Z,13.47
2018-08-23T16:41:26.066Z,12.03
2018-08-23T16:43:54.337Z,12.97
2018-08-23T16:46:22.574Z,14.40
2018-08-23T16:48:50.987Z,15.07
2018-08-23T16:51:19.190Z,17.63
2018-08-23T16:53:47.421Z,15.37
2018-08-23T16:56:15.671Z,12.00
2018-08-23T16:58:44.302Z,13.83
2018-08-23T17:01:12.521Z,12.57
2018-08-23T17:03:40.842Z,13.43
2018-08-23T17:06:09.428Z,12.37
2018-08-23T17:08:37.808Z,13.90
2018-08-23T17:11:06.080Z,10.67
2018-08-23T17:13:36.244Z,12.63
2018-08-23T17:16:10.313Z,12.70
2018-08-23T17:18:38.639Z,11.13
2018-08-23T17:21:06.815Z,13.80
2018-08-23T17:23:35.044Z,13.77
2018-08-23T17:26:03.426Z,16.40
2018-08-23T17:28:31.681Z,15.03
2018-08-23T17:31:00.243Z,14.33
2018-08-23T17:33:28.514Z,13.50
2018-08-23T17:35:56.875Z,15.93
2018-08-23T17:38:26.699Z,15.50
2018-08-23T17:40:54.944Z,15.80
2018-08-23T17:43:23.256Z,13.70
2018-08-23T17:45:51.944Z,15.70
2018-08-23T17:48:20.702Z,12.17
2018-08-23T17:50:48.984Z,14.80
2018-08-23T17:53:17.521Z,16.67
2018-08-23T17:55:45.799Z,15.33
2018-08-23T17:58:14.024Z,15.20
2018-08-23T18:00:42.285Z,17.63
2018-08-23T18:03:10.664Z,15.93
2018-08-23T18:05:38.986Z,18.43
2018-08-23T18:08:07.421Z,14.53
2018-08-23T18:10:35.827Z,16.40
2018-08-23T18:13:04.185Z,16.90
2018-08-23T18:15:37.692Z,16.20
2018-08-23T18:18:05.940Z,16.57
2018-08-23T18:20:34.311Z,16.30
2018-08-23T18:23:02.508Z,15.37
2018-08-23T18:25:31.021Z,14.87
2018-08-23T18:27:59.142Z,14.40
2018-08-23T18:30:27.366Z,15.10
2018-08-23T18:32:55.568Z,17.83
2018-08-23T18:35:23.760Z,17.30
2018-08-23T18:37:52.018Z,17.97
2018-08-23T18:40:20.297Z,16.87
2018-08-23T18:42:48.524Z,18.90
2018-08-23T18:45:16.804Z,19.47
2018-08-23T18:47:45.353Z,18.57
2018-08-23T18:50:13.673Z,20.70
2018-08-23T18:52:41.882Z,19.60
2018-08-23T18:55:10.090Z,17.80
2018-08-23T18:57:38.263Z,19.80
2018-08-23T19:00:06.797Z,18.63
2018-08-23T19:02:34.840Z,16.17
2018-08-23T19:05:03.046Z,18.53
2018-08-23T19:07:36.700Z,16.97
2018-08-23T19:10:05.005Z,15.63
2018-08-23T19:12:33.192Z,17.77
2018-08-23T19:15:01.407Z,15.87
2018-08-23T19:17:34.435Z,16.03
2018-08-23T19:20:02.648Z,16.17
2018-08-23T19:22:30.873Z,15.03
2018-08-23T19:24:59.153Z,16.23
2018-08-23T19:27:28.280Z,15.27
2018-08-23T19:29:56.476Z,14.93
2018-08-23T19:32:24.840Z,16.00
2018-08-23T19:34:53.029Z,16.27
2018-08-23T19:37:21.293Z,16.03
2018-08-23T19:39:49.556Z,14.37
2018-08-23T19:42:17.829Z,13.13
2018-08-23T19:44:51.493Z,13.77
2018-08-23T19:47:28.815Z,15.10
2018-08-23T19:49:58.199Z,13.47
2018-08-23T19:52:26.523Z,13.67
2018-08-23T19:54:54.749Z,12.10
2018-08-23T19:57:23.008Z,12.17
2018-08-23T19:59:51.267Z,11.70
2018-08-23T20:02:19.561Z,11.20
2018-08-23T20:04:47.844Z,12.13
2018-08-23T20:07:16.191Z,14.57
2018-08-23T20:09:44.604Z,16.77
2018-08-23T20:12:12.853Z,13.43
2018-08-23T20:14:41.124Z,12.50
2018-08-23T20:17:09.511Z,14.10
2018-08-23T20:19:37.688Z,13.93
2018-08-23T20:22:06.945Z,13.33
2018-08-23T20:24:35.596Z,12.80
2018-08-23T20:27:03.862Z,16.10
2018-08-23T20:29:32.129Z,15.60
2018-08-23T20:32:00.372Z,16.70
2018-08-23T20:34:28.593Z,14.37
2018-08-23T20:36:56.955Z,14.03
2018-08-23T20:39:25.384Z,14.07
2018-08-23T20:41:53.368Z,13.80
2018-08-23T20:44:21.579Z,13.37
2018-08-23T20:46:49.892Z,13.67
2018-08-23T20:49:18.127Z,13.83
2018-08-23T20:51:46.328Z,12.77
2018-08-23T20:54:14.532Z,10.80
2018-08-23T20:56:42.748Z,14.63
2018-08-23T20:59:10.932Z,11.00
2018-08-23T21:01:39.192Z,10.57
2018-08-23T21:04:07.838Z,11.23
2018-08-23T21:06:36.062Z,13.17
2018-08-23T21:09:07.499Z,13.17
2018-08-23T21:11:35.980Z,12.53
2018-08-23T21:14:04.320Z,11.70
2018-08-23T21:16:32.535Z,11.03
2018-08-23T21:19:00.744Z,16.53
2018-08-23T21:21:29.020Z,11.77
2018-08-23T21:23:57.228Z,10.40
2018-08-23T21:26:25.468Z,11.63
2018-08-23T21:28:53.744Z,10.30
2018-08-23T21:31:21.933Z,11.63
2018-08-23T21:33:50.112Z,10.57
2018-08-23T21:36:18.319Z,10.83
2018-08-23T21:38:46.763Z,10.23
2018-08-23T21:41:14.977Z,13.50
2018-08-23T21:43:43.268Z,9.87
2018-08-23T21:46:11.761Z,9.60
2018-08-23T21:48:39.958Z,11.10
2018-08-23T21:51:08.132Z,10.30
2018-08-23T21:53:36.553Z,10.83
2018-08-23T21:56:04.723Z,12.47
2018-08-23T21:58:33.141Z,9.13
2018-08-23T22:01:07.224Z,8.47
2018-08-23T22:03:35.652Z,10.20
2018-08-23T22:06:03.981Z,9.13
2018-08-23T22:08:32.544Z,9.37
2018-08-23T22:11:00.797Z,8.60
2018-08-23T22:13:29.088Z,9.20
2018-08-23T22:15:57.454Z,9.50
2018-08-23T22:18:25.760Z,7.80
2018-08-23T22:20:54.015Z,9.13
2018-08-23T22:23:22.956Z,6.40
2018-08-23T22:25:51.212Z,6.30
2018-08-23T22:28:19.449Z,7.97
2018-08-23T22:30:47.773Z,5.43
2018-08-23T22:33:15.940Z,7.17
2018-08-23T22:35:44.179Z,5.90
2018-08-23T22:38:12.388Z,6.70
2018-08-23T22:40:40.612Z,5.50
2018-08-23T22:43:08.869Z,6.23
2018-08-23T22:45:37.186Z,5.27
2018-08-23T22:48:05.546Z,5.37
2018-08-23T22:50:33.800Z,5.60
2018-08-23T22:53:02.039Z,7.73
2018-08-23T22:55:30.306Z,5.00
2018-08-23T22:57:58.480Z,4.40
2018-08-23T23:00:32.116Z,6.33
2018-08-23T23:03:00.384Z,5.50
2018-08-23T23:05:28.620Z,7.67
2018-08-23T23:08:01.584Z,5.87
2018-08-23T23:10:29.809Z,4.97
2018-08-23T23:12:58.076Z,7.30
2018-08-23T23:15:26.426Z,6.33
2018-08-23T23:17:54.959Z,6.43
2018-08-23T23:20:23.159Z,6.90
2018-08-23T23:22:51.384Z,5.77
2018-08-23T23:25:19.563Z,4.40
2018-08-23T23:27:47.793Z,5.97
2018-08-23T23:30:16.178Z,4.67
2018-08-23T23:32:44.588Z,5.10
2018-08-23T23:35:12.809Z,5.40
2018-08-23T23:37:41.052Z,6.97
2018-08-23T23:40:09.292Z,6.30
2018-08-23T23:42:38.268Z,3.80
2018-08-23T23:45:07.099Z,6.07
2018-08-23T23:47:35.327Z,5.30
2018-08-23T23:50:03.596Z,5.43
2018-08-23T23:52:31.992Z,5.57
2018-08-23T23:55:00.220Z,4.97
2018-08-23T23:57:28.407Z,5.87
2018-08-23T23:59:56.660Z,4.87
